sensor_id;sensor_type;location;lat;lon;timestamp;pressure;altitude;pressure_sealevel;temperature;humidity
36248;BME280;22287;50.824;5.644;2023-02-22T00:01:16;100687.41;;;6.42;86.58
36248;BME280;22287;50.824;5.644;2023-02-22T00:04:09;100689.91;;;7.08;82.33
36248;BME280;22287;50.824;5.644;2023-02-22T00:06:36;100685.16;;;6.36;84.78
36248;BME280;22287;50.824;5.644;2023-02-22T00:09:03;100681.38;;;6.26;86.13
36248;BME280;22287;50.824;5.644;2023-02-22T00:11:30;100684.19;;;6.50;85.99
36248;BME280;22287;50.824;5.644;2023-02-22T00:13:57;100677.25;;;6.08;87.23
36248;BME280;22287;50.824;5.644;2023-02-22T00:16:25;100679.34;;;5.90;88.18
36248;BME280;22287;50.824;5.644;2023-02-22T00:18:53;100672.00;;;6.19;85.97
36248;BME280;22287;50.824;5.644;2023-02-22T00:21:20;100675.81;;;6.80;84.25
36248;BME280;22287;50.824;5.644;2023-02-22T00:23:59;100684.44;;;6.97;83.39
36248;BME280;22287;50.824;5.644;2023-02-22T00:26:26;100676.56;;;6.44;84.69
36248;BME280;22287;50.824;5.644;2023-02-22T00:28:53;100678.50;;;6.55;84.98
36248;BME280;22287;50.824;5.644;2023-02-22T00:31:20;100665.53;;;6.61;84.00
36248;BME280;22287;50.824;5.644;2023-02-22T00:33:48;100669.94;;;6.75;83.75
36248;BME280;22287;50.824;5.644;2023-02-22T00:36:16;100663.34;;;6.41;83.49
36248;BME280;22287;50.824;5.644;2023-02-22T00:38:42;100660.56;;;6.42;85.58
36248;BME280;22287;50.824;5.644;2023-02-22T00:41:10;100662.63;;;6.52;84.52
36248;BME280;22287;50.824;5.644;2023-02-22T00:43:38;100667.25;;;6.62;84.59
36248;BME280;22287;50.824;5.644;2023-02-22T00:46:04;100665.81;;;6.31;84.83
36248;BME280;22287;50.824;5.644;2023-02-22T00:48:31;100672.06;;;6.70;83.89
36248;BME280;22287;50.824;5.644;2023-02-22T00:50:58;100665.19;;;6.91;82.95
36248;BME280;22287;50.824;5.644;2023-02-22T00:53:25;100669.78;;;7.01;81.87
36248;BME280;22287;50.824;5.644;2023-02-22T00:55:52;100669.16;;;7.10;81.76
36248;BME280;22287;50.824;5.644;2023-02-22T00:58:20;100670.56;;;7.03;81.19
36248;BME280;22287;50.824;5.644;2023-02-22T01:00:47;100670.56;;;7.03;81.65
36248;BME280;22287;50.824;5.644;2023-02-22T01:03:32;100669.06;;;6.74;82.63
36248;BME280;22287;50.824;5.644;2023-02-22T01:06:00;100670.88;;;6.61;84.47
36248;BME280;22287;50.824;5.644;2023-02-22T01:08:30;100677.00;;;6.63;83.70
36248;BME280;22287;50.824;5.644;2023-02-22T01:10:58;100675.19;;;6.64;83.92
36248;BME280;22287;50.824;5.644;2023-02-22T01:13:25;100670.47;;;6.80;83.60
36248;BME280;22287;50.824;5.644;2023-02-22T01:15:52;100665.00;;;6.56;84.23
36248;BME280;22287;50.824;5.644;2023-02-22T01:18:22;100672.63;;;6.62;84.14
36248;BME280;22287;50.824;5.644;2023-02-22T01:20:48;100677.97;;;6.37;85.53
36248;BME280;22287;50.824;5.644;2023-02-22T01:23:16;100671.94;;;6.33;85.39
36248;BME280;22287;50.824;5.644;2023-02-22T01:25:43;100669.50;;;6.43;85.18
36248;BME280;22287;50.824;5.644;2023-02-22T01:28:12;100673.13;;;6.42;84.71
36248;BME280;22287;50.824;5.644;2023-02-22T01:30:47;100669.16;;;6.60;84.09
36248;BME280;22287;50.824;5.644;2023-02-22T01:33:14;100665.06;;;6.29;86.01
36248;BME280;22287;50.824;5.644;2023-02-22T01:35:43;100671.97;;;6.59;84.54
36248;BME280;22287;50.824;5.644;2023-02-22T01:38:12;100665.97;;;6.68;83.44
36248;BME280;22287;50.824;5.644;2023-02-22T01:40:42;100667.78;;;6.92;81.91
36248;BME280;22287;50.824;5.644;2023-02-22T01:43:28;100667.88;;;6.66;82.54
36248;BME280;22287;50.824;5.644;2023-02-22T01:48:48;100666.81;;;6.43;83.91
36248;BME280;22287;50.824;5.644;2023-02-22T01:51:18;100658.75;;;6.56;83.77
36248;BME280;22287;50.824;5.644;2023-02-22T01:56:17;100653.91;;;6.61;82.59
36248;BME280;22287;50.824;5.644;2023-02-22T01:58:49;100657.69;;;6.45;83.93
36248;BME280;22287;50.824;5.644;2023-02-22T02:01:19;100658.00;;;6.54;83.68
36248;BME280;22287;50.824;5.644;2023-02-22T02:03:49;100657.38;;;6.75;82.57
36248;BME280;22287;50.824;5.644;2023-02-22T02:06:18;100659.28;;;6.61;82.83
36248;BME280;22287;50.824;5.644;2023-02-22T02:09:03;100656.28;;;6.78;82.11
36248;BME280;22287;50.824;5.644;2023-02-22T02:11:31;100663.38;;;6.79;81.62
36248;BME280;22287;50.824;5.644;2023-02-22T02:13:58;100661.22;;;6.59;82.13
36248;BME280;22287;50.824;5.644;2023-02-22T02:16:37;100663.03;;;6.58;82.82
36248;BME280;22287;50.824;5.644;2023-02-22T02:19:33;100662.50;;;6.53;82.85
36248;BME280;22287;50.824;5.644;2023-02-22T02:27:22;100651.94;;;6.25;82.61
36248;BME280;22287;50.824;5.644;2023-02-22T02:35:13;100644.34;;;6.44;82.20
36248;BME280;22287;50.824;5.644;2023-02-22T02:40:20;100640.34;;;6.12;83.40
36248;BME280;22287;50.824;5.644;2023-02-22T02:43:12;100631.09;;;6.03;83.20
36248;BME280;22287;50.824;5.644;2023-02-22T02:45:52;100631.06;;;5.90;83.84
36248;BME280;22287;50.824;5.644;2023-02-22T02:48:27;100631.41;;;5.99;83.44
36248;BME280;22287;50.824;5.644;2023-02-22T02:50:57;100626.19;;;6.10;82.11
36248;BME280;22287;50.824;5.644;2023-02-22T02:53:34;100627.38;;;6.18;81.35
36248;BME280;22287;50.824;5.644;2023-02-22T02:56:02;100627.53;;;6.03;81.78
36248;BME280;22287;50.824;5.644;2023-02-22T02:58:30;100618.41;;;6.05;81.68
36248;BME280;22287;50.824;5.644;2023-02-22T03:00:59;100617.53;;;5.92;82.04
36248;BME280;22287;50.824;5.644;2023-02-22T03:03:58;100611.63;;;5.87;82.09
36248;BME280;22287;50.824;5.644;2023-02-22T03:06:39;100611.78;;;5.98;81.23
36248;BME280;22287;50.824;5.644;2023-02-22T03:12:18;100605.34;;;5.74;82.14
36248;BME280;22287;50.824;5.644;2023-02-22T03:20:27;100592.13;;;5.85;80.78
36248;BME280;22287;50.824;5.644;2023-02-22T03:25:57;100579.50;;;5.73;78.70
36248;BME280;22287;50.824;5.644;2023-02-22T03:28:28;100579.03;;;5.66;79.27
36248;BME280;22287;50.824;5.644;2023-02-22T03:31:03;100575.41;;;5.67;80.10
36248;BME280;22287;50.824;5.644;2023-02-22T03:36:34;100573.34;;;5.98;78.73
36248;BME280;22287;50.824;5.644;2023-02-22T03:39:08;100570.03;;;5.67;79.43
36248;BME280;22287;50.824;5.644;2023-02-22T03:41:38;100572.00;;;5.78;78.79
36248;BME280;22287;50.824;5.644;2023-02-22T03:44:12;100562.19;;;5.64;78.65
36248;BME280;22287;50.824;5.644;2023-02-22T03:46:41;100563.38;;;5.07;81.91
36248;BME280;22287;50.824;5.644;2023-02-22T03:51:42;100557.63;;;5.13;80.73
36248;BME280;22287;50.824;5.644;2023-02-22T03:54:10;100558.94;;;5.47;78.95
36248;BME280;22287;50.824;5.644;2023-02-22T03:56:49;100551.94;;;5.44;79.54
36248;BME280;22287;50.824;5.644;2023-02-22T03:59:21;100554.34;;;5.61;78.32
36248;BME280;22287;50.824;5.644;2023-02-22T04:02:01;100553.47;;;5.48;78.60
36248;BME280;22287;50.824;5.644;2023-02-22T04:04:42;100555.97;;;5.90;76.41
36248;BME280;22287;50.824;5.644;2023-02-22T04:07:11;100554.22;;;5.50;78.06
36248;BME280;22287;50.824;5.644;2023-02-22T04:09:38;100553.63;;;5.59;77.91
36248;BME280;22287;50.824;5.644;2023-02-22T04:12:05;100544.69;;;5.46;77.74
36248;BME280;22287;50.824;5.644;2023-02-22T04:14:45;100548.91;;;5.09;78.92
36248;BME280;22287;50.824;5.644;2023-02-22T04:17:12;100541.06;;;5.33;78.80
36248;BME280;22287;50.824;5.644;2023-02-22T04:19:39;100540.47;;;5.42;77.73
36248;BME280;22287;50.824;5.644;2023-02-22T04:22:06;100534.72;;;5.61;77.24
36248;BME280;22287;50.824;5.644;2023-02-22T04:24:36;100522.50;;;5.57;77.03
36248;BME280;22287;50.824;5.644;2023-02-22T04:27:04;100530.09;;;5.50;77.89
36248;BME280;22287;50.824;5.644;2023-02-22T04:29:34;100528.19;;;5.52;76.58
36248;BME280;22287;50.824;5.644;2023-02-22T04:32:04;100509.13;;;5.69;76.95
36248;BME280;22287;50.824;5.644;2023-02-22T04:34:31;100510.16;;;6.06;74.41
36248;BME280;22287;50.824;5.644;2023-02-22T04:36:57;100519.09;;;5.55;76.19
36248;BME280;22287;50.824;5.644;2023-02-22T04:39:25;100509.94;;;5.45;77.31
36248;BME280;22287;50.824;5.644;2023-02-22T04:41:52;100510.06;;;5.56;77.10
36248;BME280;22287;50.824;5.644;2023-02-22T04:44:19;100508.78;;;5.49;76.80
36248;BME280;22287;50.824;5.644;2023-02-22T04:46:46;100504.06;;;5.13;78.75
36248;BME280;22287;50.824;5.644;2023-02-22T04:49:15;100505.91;;;5.64;77.25
36248;BME280;22287;50.824;5.644;2023-02-22T04:51:43;100500.31;;;5.55;76.28
36248;BME280;22287;50.824;5.644;2023-02-22T04:54:11;100495.31;;;5.23;78.07
36248;BME280;22287;50.824;5.644;2023-02-22T04:56:44;100495.78;;;5.55;76.31
36248;BME280;22287;50.824;5.644;2023-02-22T04:59:11;100498.84;;;5.24;77.79
36248;BME280;22287;50.824;5.644;2023-02-22T05:01:42;100494.91;;;5.42;77.07
36248;BME280;22287;50.824;5.644;2023-02-22T05:04:08;100490.88;;;5.49;77.39
36248;BME280;22287;50.824;5.644;2023-02-22T05:06:35;100483.78;;;5.48;76.86
36248;BME280;22287;50.824;5.644;2023-02-22T05:09:02;100483.25;;;5.56;76.49
36248;BME280;22287;50.824;5.644;2023-02-22T05:11:29;100471.47;;;5.46;76.74
36248;BME280;22287;50.824;5.644;2023-02-22T05:13:56;100478.63;;;5.32;77.11
36248;BME280;22287;50.824;5.644;2023-02-22T05:16:23;100472.19;;;5.35;77.73
36248;BME280;22287;50.824;5.644;2023-02-22T05:18:50;100474.94;;;5.21;77.01
36248;BME280;22287;50.824;5.644;2023-02-22T05:21:17;100462.84;;;5.28;77.12
36248;BME280;22287;50.824;5.644;2023-02-22T05:23:44;100459.00;;;5.32;76.96
36248;BME280;22287;50.824;5.644;2023-02-22T05:26:10;100466.75;;;5.49;76.17
36248;BME280;22287;50.824;5.644;2023-02-22T05:28:37;100467.16;;;5.43;75.79
36248;BME280;22287;50.824;5.644;2023-02-22T05:31:04;100461.25;;;5.38;76.08
36248;BME280;22287;50.824;5.644;2023-02-22T05:33:32;100449.16;;;5.32;76.58
36248;BME280;22287;50.824;5.644;2023-02-22T05:35:59;100452.41;;;5.11;77.49
36248;BME280;22287;50.824;5.644;2023-02-22T05:38:26;100447.94;;;5.24;77.43
36248;BME280;22287;50.824;5.644;2023-02-22T05:40:53;100436.81;;;5.30;76.83
36248;BME280;22287;50.824;5.644;2023-02-22T05:43:19;100436.56;;;5.33;76.65
36248;BME280;22287;50.824;5.644;2023-02-22T05:45:46;100435.06;;;5.16;76.69
36248;BME280;22287;50.824;5.644;2023-02-22T05:48:13;100440.63;;;5.13;77.88
36248;BME280;22287;50.824;5.644;2023-02-22T05:50:40;100431.22;;;5.33;76.37
36248;BME280;22287;50.824;5.644;2023-02-22T05:53:06;100434.69;;;5.35;76.53
36248;BME280;22287;50.824;5.644;2023-02-22T05:55:33;100423.69;;;5.13;76.88
36248;BME280;22287;50.824;5.644;2023-02-22T05:58:00;100425.44;;;5.39;76.27
36248;BME280;22287;50.824;5.644;2023-02-22T06:00:29;100416.03;;;5.46;75.59
36248;BME280;22287;50.824;5.644;2023-02-22T06:02:57;100425.03;;;5.32;76.29
36248;BME280;22287;50.824;5.644;2023-02-22T06:05:25;100417.53;;;5.38;76.20
36248;BME280;22287;50.824;5.644;2023-02-22T06:07:52;100414.56;;;5.55;76.32
36248;BME280;22287;50.824;5.644;2023-02-22T06:10:20;100417.50;;;5.25;76.83
36248;BME280;22287;50.824;5.644;2023-02-22T06:12:47;100414.59;;;5.28;76.29
36248;BME280;22287;50.824;5.644;2023-02-22T06:15:16;100406.34;;;5.31;76.48
36248;BME280;22287;50.824;5.644;2023-02-22T06:17:43;100409.16;;;5.29;76.45
36248;BME280;22287;50.824;5.644;2023-02-22T06:20:12;100401.00;;;5.18;76.37
36248;BME280;22287;50.824;5.644;2023-02-22T06:22:40;100407.84;;;5.10;76.95
36248;BME280;22287;50.824;5.644;2023-02-22T06:25:08;100404.44;;;5.33;76.07
36248;BME280;22287;50.824;5.644;2023-02-22T06:27:35;100404.88;;;5.40;76.23
36248;BME280;22287;50.824;5.644;2023-02-22T06:30:03;100404.66;;;5.30;76.24
36248;BME280;22287;50.824;5.644;2023-02-22T06:32:30;100399.75;;;5.49;75.16
36248;BME280;22287;50.824;5.644;2023-02-22T06:34:57;100397.03;;;5.24;75.94
36248;BME280;22287;50.824;5.644;2023-02-22T06:37:24;100402.59;;;5.33;75.93
36248;BME280;22287;50.824;5.644;2023-02-22T06:39:51;100397.91;;;5.24;75.86
36248;BME280;22287;50.824;5.644;2023-02-22T06:42:18;100401.41;;;5.25;76.41
36248;BME280;22287;50.824;5.644;2023-02-22T06:44:44;100398.56;;;5.41;75.36
36248;BME280;22287;50.824;5.644;2023-02-22T06:47:12;100408.91;;;5.20;75.65
36248;BME280;22287;50.824;5.644;2023-02-22T06:49:39;100408.16;;;5.18;76.13
36248;BME280;22287;50.824;5.644;2023-02-22T06:52:07;100407.63;;;5.13;76.45
36248;BME280;22287;50.824;5.644;2023-02-22T06:54:35;100408.97;;;5.32;76.35
36248;BME280;22287;50.824;5.644;2023-02-22T06:57:02;100404.34;;;5.47;75.34
36248;BME280;22287;50.824;5.644;2023-02-22T06:59:28;100406.28;;;5.45;75.73
36248;BME280;22287;50.824;5.644;2023-02-22T07:01:55;100412.38;;;5.47;75.17
36248;BME280;22287;50.824;5.644;2023-02-22T07:04:22;100405.28;;;5.21;75.75
36248;BME280;22287;50.824;5.644;2023-02-22T07:06:49;100414.09;;;5.36;76.29
36248;BME280;22287;50.824;5.644;2023-02-22T07:09:17;100406.66;;;5.14;76.68
36248;BME280;22287;50.824;5.644;2023-02-22T07:11:44;100414.38;;;5.18;77.22
36248;BME280;22287;50.824;5.644;2023-02-22T07:14:11;100407.41;;;5.16;76.67
36248;BME280;22287;50.824;5.644;2023-02-22T07:16:39;100417.00;;;4.93;77.15
36248;BME280;22287;50.824;5.644;2023-02-22T07:19:05;100414.19;;;5.21;77.08
36248;BME280;22287;50.824;5.644;2023-02-22T07:21:32;100413.47;;;5.57;76.24
36248;BME280;22287;50.824;5.644;2023-02-22T07:23:59;100409.38;;;5.39;75.45
36248;BME280;22287;50.824;5.644;2023-02-22T07:26:26;100409.06;;;5.44;76.27
36248;BME280;22287;50.824;5.644;2023-02-22T07:28:53;100404.13;;;5.50;76.28
36248;BME280;22287;50.824;5.644;2023-02-22T07:31:20;100415.94;;;5.60;75.46
36248;BME280;22287;50.824;5.644;2023-02-22T07:33:47;100419.59;;;5.59;76.69
36248;BME280;22287;50.824;5.644;2023-02-22T07:36:14;100408.34;;;5.79;75.92
36248;BME280;22287;50.824;5.644;2023-02-22T07:38:44;100411.75;;;5.56;77.01
36248;BME280;22287;50.824;5.644;2023-02-22T07:41:11;100414.13;;;5.86;76.54
36248;BME280;22287;50.824;5.644;2023-02-22T07:43:38;100418.09;;;5.68;75.99
36248;BME280;22287;50.824;5.644;2023-02-22T07:46:05;100415.41;;;5.80;76.11
36248;BME280;22287;50.824;5.644;2023-02-22T07:48:32;100415.50;;;5.79;76.90
36248;BME280;22287;50.824;5.644;2023-02-22T07:50:59;100411.78;;;6.07;76.35
36248;BME280;22287;50.824;5.644;2023-02-22T07:53:28;100418.84;;;5.70;77.21
36248;BME280;22287;50.824;5.644;2023-02-22T07:56:00;100418.22;;;6.04;76.25
36248;BME280;22287;50.824;5.644;2023-02-22T07:58:29;100409.41;;;5.89;77.58
36248;BME280;22287;50.824;5.644;2023-02-22T08:00:57;100412.94;;;6.15;76.87
36248;BME280;22287;50.824;5.644;2023-02-22T08:03:25;100406.84;;;6.01;76.89
36248;BME280;22287;50.824;5.644;2023-02-22T08:05:56;100407.44;;;6.17;76.89
36248;BME280;22287;50.824;5.644;2023-02-22T08:08:24;100411.34;;;6.00;77.35
36248;BME280;22287;50.824;5.644;2023-02-22T08:10:51;100405.94;;;5.50;79.84
36248;BME280;22287;50.824;5.644;2023-02-22T08:13:19;100410.47;;;5.74;79.50
36248;BME280;22287;50.824;5.644;2023-02-22T08:15:50;100410.47;;;6.00;78.49
36248;BME280;22287;50.824;5.644;2023-02-22T08:18:18;100407.56;;;6.03;77.92
36248;BME280;22287;50.824;5.644;2023-02-22T08:20:47;100403.38;;;6.11;78.41
36248;BME280;22287;50.824;5.644;2023-02-22T08:23:16;100402.09;;;6.53;76.89
36248;BME280;22287;50.824;5.644;2023-02-22T08:25:43;100402.69;;;6.33;77.87
36248;BME280;22287;50.824;5.644;2023-02-22T08:28:13;100397.53;;;6.30;78.26
36248;BME280;22287;50.824;5.644;2023-02-22T08:30:41;100398.81;;;6.73;76.70
36248;BME280;22287;50.824;5.644;2023-02-22T08:33:12;100393.31;;;6.98;75.86
36248;BME280;22287;50.824;5.644;2023-02-22T08:35:41;100403.81;;;6.78;76.56
36248;BME280;22287;50.824;5.644;2023-02-22T08:38:15;100394.84;;;6.66;78.73
36248;BME280;22287;50.824;5.644;2023-02-22T08:40:43;100392.09;;;7.02;76.42
36248;BME280;22287;50.824;5.644;2023-02-22T08:43:10;100399.88;;;7.29;75.52
36248;BME280;22287;50.824;5.644;2023-02-22T08:45:39;100403.97;;;7.57;74.58
36248;BME280;22287;50.824;5.644;2023-02-22T08:48:06;100405.75;;;7.80;73.84
36248;BME280;22287;50.824;5.644;2023-02-22T08:50:33;100403.28;;;7.66;74.46
36248;BME280;22287;50.824;5.644;2023-02-22T08:53:03;100407.94;;;7.75;74.67
36248;BME280;22287;50.824;5.644;2023-02-22T08:55:36;100396.44;;;8.06;74.64
36248;BME280;22287;50.824;5.644;2023-02-22T08:58:04;100402.19;;;7.91;75.28
36248;BME280;22287;50.824;5.644;2023-02-22T09:00:36;100395.66;;;8.71;73.86
36248;BME280;22287;50.824;5.644;2023-02-22T09:03:07;100393.16;;;8.90;73.36
36248;BME280;22287;50.824;5.644;2023-02-22T09:05:35;100390.66;;;9.30;71.78
36248;BME280;22287;50.824;5.644;2023-02-22T09:08:03;100383.91;;;9.35;72.35
36248;BME280;22287;50.824;5.644;2023-02-22T09:10:31;100380.31;;;9.56;71.94
36248;BME280;22287;50.824;5.644;2023-02-22T09:12:59;100382.69;;;10.00;68.92
36248;BME280;22287;50.824;5.644;2023-02-22T09:15:27;100377.66;;;9.86;68.09
36248;BME280;22287;50.824;5.644;2023-02-22T09:17:54;100375.72;;;10.18;67.29
36248;BME280;22287;50.824;5.644;2023-02-22T09:20:22;100370.81;;;10.12;67.62
36248;BME280;22287;50.824;5.644;2023-02-22T09:22:50;100374.06;;;10.36;66.51
36248;BME280;22287;50.824;5.644;2023-02-22T09:25:17;100365.00;;;10.47;65.51
36248;BME280;22287;50.824;5.644;2023-02-22T09:27:50;100373.75;;;10.79;64.85
36248;BME280;22287;50.824;5.644;2023-02-22T09:30:29;100363.91;;;10.78;65.36
36248;BME280;22287;50.824;5.644;2023-02-22T09:33:03;100357.81;;;11.05;64.58
36248;BME280;22287;50.824;5.644;2023-02-22T09:35:41;100350.72;;;11.04;63.54
36248;BME280;22287;50.824;5.644;2023-02-22T09:38:18;100350.28;;;11.08;64.42
36248;BME280;22287;50.824;5.644;2023-02-22T09:40:49;100356.13;;;11.04;65.06
36248;BME280;22287;50.824;5.644;2023-02-22T09:54:47;100357.47;;;11.46;65.09
36248;BME280;22287;50.824;5.644;2023-02-22T09:57:26;100361.22;;;11.45;65.82
36248;BME280;22287;50.824;5.644;2023-02-22T10:00:17;100363.78;;;11.08;69.36
36248;BME280;22287;50.824;5.644;2023-02-22T10:02:53;100363.50;;;11.40;68.76
36248;BME280;22287;50.824;5.644;2023-02-22T10:05:28;100360.50;;;11.24;69.58
36248;BME280;22287;50.824;5.644;2023-02-22T10:08:01;100360.50;;;11.24;69.78
36248;BME280;22287;50.824;5.644;2023-02-22T10:10:36;100356.91;;;11.52;69.16
36248;BME280;22287;50.824;5.644;2023-02-22T10:16:01;100361.09;;;12.03;64.61
36248;BME280;22287;50.824;5.644;2023-02-22T10:18:49;100357.41;;;11.94;67.25
36248;BME280;22287;50.824;5.644;2023-02-22T10:21:33;100364.44;;;11.77;68.28
36248;BME280;22287;50.824;5.644;2023-02-22T10:26:52;100359.94;;;12.05;67.94
36248;BME280;22287;50.824;5.644;2023-02-22T10:29:40;100357.19;;;12.15;68.78
36248;BME280;22287;50.824;5.644;2023-02-22T10:32:16;100353.97;;;12.29;68.86
36248;BME280;22287;50.824;5.644;2023-02-22T10:34:49;100364.28;;;12.70;63.92
36248;BME280;22287;50.824;5.644;2023-02-22T10:37:33;100360.66;;;12.79;63.80
36248;BME280;22287;50.824;5.644;2023-02-22T10:40:15;100356.44;;;13.12;62.31
36248;BME280;22287;50.824;5.644;2023-02-22T10:42:43;100353.88;;;13.11;62.55
36248;BME280;22287;50.824;5.644;2023-02-22T10:45:36;100346.31;;;13.14;63.58
36248;BME280;22287;50.824;5.644;2023-02-22T10:48:06;100344.34;;;13.24;62.88
36248;BME280;22287;50.824;5.644;2023-02-22T10:50:39;100340.63;;;13.25;64.22
36248;BME280;22287;50.824;5.644;2023-02-22T10:53:08;100338.25;;;13.48;64.86
36248;BME280;22287;50.824;5.644;2023-02-22T10:55:35;100339.16;;;13.31;66.21
36248;BME280;22287;50.824;5.644;2023-02-22T10:58:22;100338.97;;;13.50;62.99
36248;BME280;22287;50.824;5.644;2023-02-22T11:00:50;100327.56;;;13.72;63.59
36248;BME280;22287;50.824;5.644;2023-02-22T11:03:19;100334.09;;;13.87;64.37
36248;BME280;22287;50.824;5.644;2023-02-22T11:05:48;100330.28;;;13.72;65.57
36248;BME280;22287;50.824;5.644;2023-02-22T11:13:37;100338.91;;;13.93;64.85
36248;BME280;22287;50.824;5.644;2023-02-22T11:18:47;100335.69;;;13.98;67.10
36248;BME280;22287;50.824;5.644;2023-02-22T11:21:20;100346.94;;;13.77;67.31
36248;BME280;22287;50.824;5.644;2023-02-22T11:23:48;100342.66;;;13.49;68.17
36248;BME280;22287;50.824;5.644;2023-02-22T11:26:17;100346.78;;;13.53;67.22
36248;BME280;22287;50.824;5.644;2023-02-22T11:28:51;100339.97;;;13.75;67.50
36248;BME280;22287;50.824;5.644;2023-02-22T11:31:26;100343.19;;;13.78;67.30
36248;BME280;22287;50.824;5.644;2023-02-22T11:33:58;100340.06;;;13.91;67.29
36248;BME280;22287;50.824;5.644;2023-02-22T11:39:09;100336.81;;;13.87;68.64
36248;BME280;22287;50.824;5.644;2023-02-22T11:41:46;100342.91;;;14.15;67.57
36248;BME280;22287;50.824;5.644;2023-02-22T11:44:26;100335.94;;;14.46;67.00
36248;BME280;22287;50.824;5.644;2023-02-22T11:46:54;100339.41;;;14.31;66.72
36248;BME280;22287;50.824;5.644;2023-02-22T11:49:24;100341.53;;;14.45;67.22
36248;BME280;22287;50.824;5.644;2023-02-22T11:57:51;100334.69;;;13.73;66.25
36248;BME280;22287;50.824;5.644;2023-02-22T12:05:44;100337.78;;;14.38;66.33
36248;BME280;22287;50.824;5.644;2023-02-22T12:11:23;100333.94;;;14.64;68.33
36248;BME280;22287;50.824;5.644;2023-02-22T12:17:04;100337.84;;;14.62;65.82
36248;BME280;22287;50.824;5.644;2023-02-22T12:19:46;100332.13;;;14.81;67.10
36248;BME280;22287;50.824;5.644;2023-02-22T12:22:33;100332.88;;;14.41;66.14
36248;BME280;22287;50.824;5.644;2023-02-22T12:25:22;100330.03;;;14.67;67.40
36248;BME280;22287;50.824;5.644;2023-02-22T12:27:54;100331.19;;;14.48;67.35
36248;BME280;22287;50.824;5.644;2023-02-22T12:30:25;100319.56;;;14.80;66.49
36248;BME280;22287;50.824;5.644;2023-02-22T12:32:58;100327.13;;;14.52;66.87
36248;BME280;22287;50.824;5.644;2023-02-22T12:35:27;100327.13;;;14.52;66.92
36248;BME280;22287;50.824;5.644;2023-02-22T12:43:21;100319.94;;;14.35;66.53
36248;BME280;22287;50.824;5.644;2023-02-22T12:48:53;100315.38;;;14.44;66.80
36248;BME280;22287;50.824;5.644;2023-02-22T12:51:51;100324.91;;;14.56;66.33
36248;BME280;22287;50.824;5.644;2023-02-22T12:56:53;100321.72;;;13.93;68.35
36248;BME280;22287;50.824;5.644;2023-02-22T12:59:38;100322.06;;;14.24;67.49
36248;BME280;22287;50.824;5.644;2023-02-22T13:04:37;100330.50;;;14.12;66.59
36248;BME280;22287;50.824;5.644;2023-02-22T13:13:16;100323.38;;;14.20;66.84
36248;BME280;22287;50.824;5.644;2023-02-22T13:21:07;100313.59;;;13.67;68.66
36248;BME280;22287;50.824;5.644;2023-02-22T13:29:07;100314.66;;;14.00;67.90
36248;BME280;22287;50.824;5.644;2023-02-22T13:40:24;100315.56;;;13.83;69.98
36248;BME280;22287;50.824;5.644;2023-02-22T13:52:00;100320.44;;;13.71;69.37
36248;BME280;22287;50.824;5.644;2023-02-22T13:54:52;100316.81;;;13.63;69.75
36248;BME280;22287;50.824;5.644;2023-02-22T13:57:22;100324.47;;;13.67;70.52
36248;BME280;22287;50.824;5.644;2023-02-22T14:13:15;100334.13;;;13.95;69.49
36248;BME280;22287;50.824;5.644;2023-02-22T14:18:41;100341.75;;;13.23;70.39
36248;BME280;22287;50.824;5.644;2023-02-22T14:21:13;100345.03;;;13.26;71.21
36248;BME280;22287;50.824;5.644;2023-02-22T14:23:47;100332.50;;;13.08;71.53
36248;BME280;22287;50.824;5.644;2023-02-22T14:26:26;100333.53;;;13.50;70.89
36248;BME280;22287;50.824;5.644;2023-02-22T14:28:59;100334.34;;;13.50;70.71
36248;BME280;22287;50.824;5.644;2023-02-22T14:31:33;100344.22;;;13.34;72.02
36248;BME280;22287;50.824;5.644;2023-02-22T14:34:11;100342.25;;;13.01;73.04
36248;BME280;22287;50.824;5.644;2023-02-22T14:37:05;100339.91;;;13.06;72.59
36248;BME280;22287;50.824;5.644;2023-02-22T14:39:41;100339.03;;;12.87;73.66
36248;BME280;22287;50.824;5.644;2023-02-22T14:42:17;100342.41;;;13.17;72.69
36248;BME280;22287;50.824;5.644;2023-02-22T14:47:35;100352.34;;;13.08;73.13
36248;BME280;22287;50.824;5.644;2023-02-22T14:50:20;100350.91;;;12.86;73.48
36248;BME280;22287;50.824;5.644;2023-02-22T14:53:03;100350.81;;;12.96;73.85
36248;BME280;22287;50.824;5.644;2023-02-22T14:55:38;100347.09;;;12.62;74.12
36248;BME280;22287;50.824;5.644;2023-02-22T14:58:33;100352.44;;;12.71;74.03
36248;BME280;22287;50.824;5.644;2023-02-22T15:01:19;100348.47;;;13.11;72.88
36248;BME280;22287;50.824;5.644;2023-02-22T15:03:50;100346.34;;;13.05;72.83
36248;BME280;22287;50.824;5.644;2023-02-22T15:06:34;100345.56;;;12.94;73.06
36248;BME280;22287;50.824;5.644;2023-02-22T15:12:14;100347.56;;;12.75;73.91
36248;BME280;22287;50.824;5.644;2023-02-22T15:14:44;100352.13;;;12.74;73.86
36248;BME280;22287;50.824;5.644;2023-02-22T15:17:18;100340.91;;;12.69;74.22
36248;BME280;22287;50.824;5.644;2023-02-22T15:19:47;100345.75;;;12.66;74.06
36248;BME280;22287;50.824;5.644;2023-02-22T15:25:01;100346.44;;;13.13;70.75
36248;BME280;22287;50.824;5.644;2023-02-22T15:27:29;100343.94;;;12.39;74.71
36248;BME280;22287;50.824;5.644;2023-02-22T15:30:13;100344.50;;;12.60;73.69
36248;BME280;22287;50.824;5.644;2023-02-22T15:32:42;100347.13;;;12.52;72.97
36248;BME280;22287;50.824;5.644;2023-02-22T15:35:29;100354.50;;;12.42;74.26
36248;BME280;22287;50.824;5.644;2023-02-22T15:38:01;100352.38;;;12.09;76.09
36248;BME280;22287;50.824;5.644;2023-02-22T15:40:29;100345.59;;;12.22;75.76
36248;BME280;22287;50.824;5.644;2023-02-22T15:43:01;100347.41;;;12.31;74.64
36248;BME280;22287;50.824;5.644;2023-02-22T15:45:30;100351.22;;;12.11;74.98
36248;BME280;22287;50.824;5.644;2023-02-22T15:47:58;100347.53;;;12.30;74.98
36248;BME280;22287;50.824;5.644;2023-02-22T15:50:34;100358.13;;;12.23;75.42
36248;BME280;22287;50.824;5.644;2023-02-22T15:55:47;100359.81;;;12.34;74.99